KPSF/PSF METAR and TAF weather

Enter ICAO airport designator
Station Type Date Time Source
KPSF METAR 2021/01/16 02:54 UTC NOAA

KPSF 160254Z AUTO 11011G17KT 10SM OVC016 01/M02 A2987 RMK AO2 PRESFR SLP125 T00111022 58021


Station Type Date Time Source
KPSF Decoded METAR 2021/01/16 02:54 UTC NOAA

PITTSFIELD MUNICIPAL AIRPORT , MA, United States (KPSF) 42-26N 073-17W 355M
Jan 15, 2021 - 09:54 PM EST / 2021.01.16 0254 UTC
Wind: from the ESE (110 degrees) at 13 MPH (11 KT) gusting to 20 MPH (17 KT):0
Visibility: 10 mile(s):0
Sky conditions: overcast
Temperature: 34.0 F (1.1 C)
Windchill: 24 F (-4 C):1
Dew Point: 28.0 F (-2.2 C)
Relative Humidity: 78%
Pressure (altimeter): 29.87 in. Hg (1011 hPa)
Pressure tendency: falling rapidly - 0.06 inches (2.1 hPa) lower than three hours ago
ob: KPSF 160254Z AUTO 11011G17KT 10SM OVC016 01/M02 A2987 RMK AO2 PRESFR SLP125 T00111022 58021
cycle: 3

Station Type Date Time Source
KPSF TAF 2021/01/15 18:54 UTC NOAA

TAF KPSF 151751Z 1518/1618 12005KT P6SM OVC010
TEMPO 1518/1521 SCT010 BKN025
FM152100 10007KT P6SM OVC015
FM160600 09008KT 2SM -RASN BR OVC008 WS020/12040KT
FM161200 11012KT 4SM -RA BR OVC008
FM161600 19008KT 5SM -RA BR OVC012

Example: see airport list